Time;durP1;ratioP1;P1;durP2;ratioP2;P2;SDS_P1;SDS_P2;PMS_P1;PMS_P2;Temp;Humidity;BMP_temperature;BMP_pressure;BME280_temperature;BME280_humidity;BME280_pressure;Samples;Min_cycle;Max_cycle;Signal;HPM_P1;HPM_P2
2021/07/27 00:00:22;;;;;;;9.00;3.28;;;;;;;19.48;100.00;100229.47;5172502;28;20291;-76
2021/07/27 00:02:52;;;;;;;5.57;2.87;;;;;;;19.65;100.00;100231.66;5166601;28;20488;-77
2021/07/27 00:05:22;;;;;;;8.07;3.10;;;;;;;19.52;100.00;100220.31;5166626;28;20270;-77
2021/07/27 00:07:53;;;;;;;5.63;2.65;;;;;;;19.41;100.00;100227.44;5167291;28;20376;-77
2021/07/27 00:10:24;;;;;;;4.13;2.67;;;;;;;19.45;100.00;100213.78;5176228;28;20415;-77
2021/07/27 00:12:55;;;;;;;4.05;2.40;;;;;;;19.60;100.00;100215.25;5164747;28;20030;-76
2021/07/27 00:15:25;;;;;;;5.35;2.55;;;;;;;19.69;100.00;100216.34;5163976;28;20022;-77
2021/07/27 00:17:55;;;;;;;6.60;2.60;;;;;;;19.73;99.09;100217.78;5164255;28;20034;-77
2021/07/27 00:20:26;;;;;;;5.50;2.87;;;;;;;19.35;100.00;100219.94;5164025;28;20635;-77
2021/07/27 00:22:56;;;;;;;5.55;2.80;;;;;;;19.29;100.00;100217.75;5172626;28;20695;-77
2021/07/27 00:25:27;;;;;;;4.90;2.57;;;;;;;19.28;100.00;100206.31;5165398;28;20019;-77
2021/07/27 00:27:57;;;;;;;5.87;2.77;;;;;;;19.32;100.00;100215.72;5166536;28;20373;-77
2021/07/27 00:30:27;;;;;;;6.85;3.00;;;;;;;19.33;100.00;100212.13;5166092;28;20787;-77
2021/07/27 00:32:58;;;;;;;5.23;2.70;;;;;;;19.37;100.00;100210.91;5152515;28;20041;-77
2021/07/27 00:35:31;;;;;;;4.72;2.80;;;;;;;19.33;100.00;100208.59;5166395;28;20722;-77
2021/07/27 00:38:12;;;;;;;6.50;2.70;;;;;;;19.20;100.00;100214.00;5168329;28;20018;-77
2021/07/27 00:40:44;;;;;;;7.28;2.92;;;;;;;19.19;100.00;100212.31;5168518;28;20114;-77
2021/07/27 00:43:17;;;;;;;4.78;2.90;;;;;;;19.30;100.00;100203.53;5156583;28;20027;-77
2021/07/27 00:45:47;;;;;;;6.30;2.90;;;;;;;19.24;100.00;100194.25;5164908;28;20061;-78
2021/07/27 00:48:17;;;;;;;3.67;2.50;;;;;;;19.30;100.00;100204.38;5164899;28;20030;-77
2021/07/27 00:50:48;;;;;;;7.57;3.00;;;;;;;19.13;100.00;100199.50;5165802;28;20034;-76
2021/07/27 00:53:19;;;;;;;10.70;2.75;;;;;;;18.96;100.00;100202.56;5167474;28;20544;-76
2021/07/27 00:55:51;;;;;;;4.72;2.85;;;;;;;19.07;100.00;100202.63;5174351;28;20028;-77
2021/07/27 00:58:21;;;;;;;7.35;3.25;;;;;;;19.06;100.00;100206.22;5173646;28;20022;-77
2021/07/27 01:00:52;;;;;;;4.95;2.72;;;;;;;19.19;100.00;100211.47;5165587;28;20101;-77
2021/07/27 01:03:23;;;;;;;7.53;2.80;;;;;;;19.05;100.00;100204.53;5164108;28;20030;-75
2021/07/27 01:05:53;;;;;;;7.32;2.92;;;;;;;18.99;100.00;100202.38;5165786;28;20030;-77
2021/07/27 01:08:23;;;;;;;5.73;2.87;;;;;;;18.87;100.00;100200.66;5170020;28;20153;-77
2021/07/27 01:10:54;;;;;;;5.93;2.70;;;;;;;18.89;100.00;100203.16;5169924;28;20284;-77
2021/07/27 01:13:24;;;;;;;5.15;2.85;;;;;;;18.91;100.00;100206.56;5165351;28;20050;-76
2021/07/27 01:16:00;;;;;;;6.85;3.08;;;;;;;18.80;100.00;100209.16;5165500;28;20040;-76
2021/07/27 01:18:35;;;;;;;6.15;3.20;;;;;;;18.84;100.00;100200.88;5165584;28;20030;-76
2021/07/27 01:37:55;;;;;;;5.70;3.10;;;;;;;19.08;100.00;100195.53;5163967;28;20041;-77
2021/07/27 01:40:28;;;;;;;5.75;2.95;;;;;;;19.08;100.00;100201.66;5169659;28;20026;-77
2021/07/27 01:42:58;;;;;;;5.03;2.75;;;;;;;19.19;100.00;100192.91;5162714;28;20109;-77
2021/07/27 01:45:28;;;;;;;4.90;2.50;;;;;;;19.19;100.00;100201.72;5163146;28;20540;-77
2021/07/27 01:47:58;;;;;;;4.40;2.50;;;;;;;19.15;100.00;100200.25;5163498;28;20906;-77
2021/07/27 01:50:29;;;;;;;8.33;2.90;;;;;;;19.09;100.00;100195.41;5161533;28;20056;-77
2021/07/27 01:53:04;;;;;;;3.67;2.80;;;;;;;18.89;100.00;100204.00;5162817;28;20277;-77
2021/07/27 01:55:35;;;;;;;3.90;2.65;;;;;;;18.92;100.00;100205.59;5164963;28;20301;-77
2021/07/27 01:58:05;;;;;;;8.30;2.85;;;;;;;18.87;100.00;100198.00;5165999;28;20034;-77
2021/07/27 02:00:35;;;;;;;4.63;2.60;;;;;;;18.87;100.00;100203.28;5162484;28;20090;-77
2021/07/27 02:03:05;;;;;;;5.90;2.57;;;;;;;18.90;100.00;100204.88;5161221;28;20300;-78
2021/07/27 02:05:37;;;;;;;3.93;2.53;;;;;;;19.02;98.97;100202.13;5160459;28;20273;-77
2021/07/27 02:08:07;;;;;;;5.18;2.70;;;;;;;18.68;100.00;100203.94;5164172;28;20280;-78
2021/07/27 02:10:39;;;;;;;4.63;2.60;;;;;;;18.79;100.00;100212.78;5168593;28;20018;-77
2021/07/27 02:13:14;;;;;;;5.45;2.70;;;;;;;18.73;100.00;100203.47;5160178;28;20293;-78
2021/07/27 02:15:44;;;;;;;5.43;2.67;;;;;;;18.40;100.00;100194.56;5156778;28;20052;-77
2021/07/27 02:18:15;;;;;;;6.75;2.83;;;;;;;18.31;100.00;100199.69;5160071;28;20360;-77
2021/07/27 02:20:48;;;;;;;3.58;2.63;;;;;;;18.44;100.00;100203.09;5159821;28;20030;-77
2021/07/27 02:23:19;;;;;;;5.10;2.80;;;;;;;18.17;100.00;100195.34;5159709;28;20581;-77
2021/07/27 02:25:49;;;;;;;4.03;2.63;;;;;;;18.03;100.00;100200.78;5169440;28;20022;-77
2021/07/27 02:28:20;;;;;;;6.07;2.55;;;;;;;18.22;100.00;100205.59;5163730;28;20496;-77
2021/07/27 02:30:56;;;;;;;5.70;2.90;;;;;;;18.21;100.00;100203.91;5159218;28;20065;-77
2021/07/27 02:33:28;;;;;;;3.92;2.70;;;;;;;18.25;100.00;100203.56;5160265;28;20026;-78
2021/07/27 02:35:58;;;;;;;6.72;3.08;;;;;;;18.17;100.00;100197.97;5159829;28;20037;-78
2021/07/27 02:38:28;;;;;;;5.00;2.90;;;;;;;18.35;100.00;100207.25;5164452;28;20440;-77
2021/07/27 02:41:01;;;;;;;5.00;2.70;;;;;;;18.28;100.00;100205.16;5167328;28;20296;-78
2021/07/27 02:43:32;;;;;;;5.47;2.83;;;;;;;18.13;100.00;100201.81;5159841;28;20026;-78
2021/07/27 02:46:02;;;;;;;6.55;3.00;;;;;;;18.38;100.00;100216.78;5160072;28;20402;-77
2021/07/27 02:48:33;;;;;;;6.83;3.50;;;;;;;18.31;100.00;100220.84;5160114;28;20613;-77
2021/07/27 02:51:07;;;;;;;7.15;2.85;;;;;;;18.35;100.00;100215.19;5161154;28;20376;-78
2021/07/27 02:53:37;;;;;;;3.88;2.53;;;;;;;18.42;100.00;100218.25;5164119;28;20030;-78
2021/07/27 02:56:08;;;;;;;5.43;3.03;;;;;;;18.37;100.00;100223.03;5175081;28;20069;-77
2021/07/27 02:58:39;;;;;;;6.78;3.00;;;;;;;18.26;100.00;100217.63;5164608;28;20026;-77
2021/07/27 03:01:09;;;;;;;7.53;2.78;;;;;;;18.20;100.00;100216.28;5163022;28;20034;-77
2021/07/27 03:03:39;;;;;;;4.83;2.77;;;;;;;18.18;100.00;100220.84;5164066;28;20037;-77
2021/07/27 03:06:12;;;;;;;6.03;2.97;;;;;;;18.31;100.00;100216.38;5163473;28;20786;-77
2021/07/27 03:09:03;;;;;;;3.90;2.80;;;;;;;18.43;100.00;100222.56;5168689;28;20276;-78
2021/07/27 03:11:34;;;;;;;4.78;3.10;;;;;;;18.47;100.00;100218.75;5167170;28;20227;-77
2021/07/27 03:14:04;;;;;;;4.37;3.10;;;;;;;18.51;100.00;100217.59;5164238;28;20168;-78
2021/07/27 03:16:34;;;;;;;7.00;3.30;;;;;;;18.59;100.00;100209.91;5163992;28;20292;-77
2021/07/27 03:19:04;;;;;;;5.82;3.22;;;;;;;18.64;100.00;100215.69;5161923;28;20030;-77
2021/07/27 03:21:35;;;;;;;5.43;3.50;;;;;;;18.61;100.00;100227.38;5162953;28;20412;-78
2021/07/27 03:24:05;;;;;;;6.38;3.60;;;;;;;18.61;100.00;100227.38;5166088;28;20266;-78
2021/07/27 03:26:35;;;;;;;4.75;3.25;;;;;;;18.66;100.00;100225.22;5172314;28;20026;-78
2021/07/27 03:29:06;;;;;;;7.03;3.83;;;;;;;18.58;100.00;100227.59;5162834;28;20048;-77
2021/07/27 03:31:37;;;;;;;9.45;4.03;;;;;;;18.47;100.00;100229.31;5162789;28;20285;-77
2021/07/27 03:34:07;;;;;;;10.02;3.53;;;;;;;18.62;100.00;100229.06;5162804;28;20442;-78
2021/07/27 03:36:37;;;;;;;7.00;3.50;;;;;;;18.49;100.00;100235.38;5162199;28;20060;-77
2021/07/27 03:39:09;;;;;;;6.95;3.45;;;;;;;18.20;100.00;100226.03;5170823;28;20273;-78
2021/07/27 03:41:39;;;;;;;7.82;3.90;;;;;;;18.17;100.00;100229.72;5167462;28;20068;-78
2021/07/27 03:44:09;;;;;;;6.53;3.73;;;;;;;18.17;100.00;100236.84;5162473;28;20042;-78
2021/07/27 03:46:45;;;;;;;6.32;3.70;;;;;;;18.35;100.00;100235.53;5163291;28;20277;-78
2021/07/27 03:49:16;;;;;;;10.38;4.22;;;;;;;18.13;100.00;100244.13;5160738;28;20030;-78
2021/07/27 03:51:46;;;;;;;8.03;3.73;;;;;;;18.36;100.00;100246.00;5163465;28;20290;-78
2021/07/27 03:54:16;;;;;;;6.97;4.00;;;;;;;18.32;100.00;100249.00;5168092;28;20864;-78
2021/07/27 03:56:46;;;;;;;5.43;3.65;;;;;;;18.29;100.00;100254.47;5172970;28;20100;-79
2021/07/27 03:59:17;;;;;;;7.10;3.47;;;;;;;18.48;100.00;100253.03;5166296;28;20062;-78
2021/07/27 04:01:48;;;;;;;6.57;3.67;;;;;;;18.60;100.00;100251.31;5172777;28;20808;-79
2021/07/27 04:04:19;;;;;;;7.18;3.60;;;;;;;18.74;100.00;100252.00;5169886;28;20060;-78
2021/07/27 04:06:49;;;;;;;8.35;3.80;;;;;;;18.39;100.00;100260.81;5170220;28;20033;-78
2021/07/27 04:09:20;;;;;;;8.93;3.78;;;;;;;18.57;100.00;100259.47;5176939;28;20025;-79
2021/07/27 04:11:50;;;;;;;7.07;3.55;;;;;;;18.51;100.00;100266.06;5173431;28;20022;-79
2021/07/27 04:14:20;;;;;;;5.72;3.30;;;;;;;18.52;100.00;100274.84;5170513;28;20045;-79
2021/07/27 04:16:50;;;;;;;6.00;3.40;;;;;;;18.52;100.00;100266.91;5170461;28;20079;-79
2021/07/27 04:19:21;;;;;;;5.37;3.20;;;;;;;18.77;100.00;100268.47;5169677;28;20277;-79
2021/07/27 04:21:51;;;;;;;4.67;2.93;;;;;;;18.88;100.00;100273.84;5170369;28;20812;-79
2021/07/27 04:24:21;;;;;;;4.75;3.20;;;;;;;19.01;100.00;100274.63;5177729;28;20706;-79
2021/07/27 04:26:52;;;;;;;5.32;3.10;;;;;;;19.08;100.00;100267.88;5179748;28;20064;-79
2021/07/27 04:29:22;;;;;;;6.82;3.40;;;;;;;19.37;100.00;100274.53;5171030;28;20041;-79
2021/07/27 04:31:52;;;;;;;6.43;3.55;;;;;;;19.51;99.33;100276.13;5166300;28;20385;-79
2021/07/27 04:34:23;;;;;;;6.97;3.63;;;;;;;19.71;98.45;100284.22;5168428;28;20048;-79
2021/07/27 04:36:53;;;;;;;5.07;3.20;;;;;;;20.05;98.60;100283.31;5166520;28;20277;-79
2021/07/27 04:39:26;;;;;;;6.23;3.70;;;;;;;19.80;99.87;100294.09;5178290;28;20018;-79
2021/07/27 04:41:57;;;;;;;4.88;3.33;;;;;;;20.19;98.35;100280.41;5173054;28;20281;-79
2021/07/27 04:44:27;;;;;;;6.93;3.38;;;;;;;20.50;96.79;100282.28;5171262;28;20022;-79
2021/07/27 04:46:58;;;;;;;5.35;3.00;;;;;;;21.86;88.55;100280.47;5171983;28;20034;-79
2021/07/27 04:49:28;;;;;;;7.00;3.38;;;;;;;23.14;83.04;100275.91;5169384;28;20275;-80
2021/07/27 04:51:58;;;;;;;4.77;2.37;;;;;;;23.18;81.63;100277.34;5170362;28;20389;-80
2021/07/27 04:54:31;;;;;;;7.50;2.85;;;;;;;22.04;85.63;100268.22;5178215;28;20725;-80
2021/07/27 04:57:01;;;;;;;4.35;2.85;;;;;;;22.34;86.11;100277.03;5180580;28;20029;-79
2021/07/27 04:59:31;;;;;;;8.10;2.72;;;;;;;25.10;76.09;100254.84;5168540;28;20026;-80
2021/07/27 05:02:02;;;;;;;4.18;2.83;;;;;;;26.38;72.84;100265.59;5170406;28;20052;-80
2021/07/27 05:04:34;;;;;;;4.53;2.55;;;;;;;26.60;70.49;100257.81;5172794;28;20030;-80
2021/07/27 05:07:05;;;;;;;5.20;2.72;;;;;;;28.06;65.45;100262.03;5165442;28;20019;-80
2021/07/27 05:09:35;;;;;;;7.03;3.00;;;;;;;27.94;65.87;100266.09;5175697;28;20042;-80
2021/07/27 05:12:06;;;;;;;7.40;2.87;;;;;;;26.92;68.59;100266.75;5172153;28;20030;-80
2021/07/27 05:14:36;;;;;;;6.03;2.80;;;;;;;25.29;71.20;100270.75;5171583;28;20456;-79
2021/07/27 05:17:10;;;;;;;5.78;3.00;;;;;;;24.64;74.63;100272.09;5170483;28;20409;-79
2021/07/27 05:19:51;;;;;;;4.95;2.78;;;;;;;23.61;76.74;100275.88;5169392;28;20084;-79
2021/07/27 05:22:24;;;;;;;4.68;2.78;;;;;;;23.15;78.63;100277.59;5169513;28;20802;-79
2021/07/27 05:24:56;;;;;;;5.90;2.80;;;;;;;22.86;80.91;100274.06;5171649;28;20471;-79
2021/07/27 05:27:27;;;;;;;6.25;2.90;;;;;;;22.41;82.25;100274.72;5175439;28;20484;-79
2021/07/27 05:29:57;;;;;;;7.10;2.72;;;;;;;22.22;83.55;100275.44;5168658;28;20026;-79
2021/07/27 05:32:28;;;;;;;6.40;3.00;;;;;;;22.14;83.97;100269.09;5170139;28;20554;-78
2021/07/27 05:34:58;;;;;;;5.50;2.90;;;;;;;22.50;83.34;100276.53;5170799;28;20631;-78
2021/07/27 05:37:28;;;;;;;6.10;3.15;;;;;;;22.04;84.50;100279.72;5170076;28;20034;-79
2021/07/27 05:39:58;;;;;;;6.53;3.35;;;;;;;21.60;87.51;100284.50;5178645;28;20040;-78
2021/07/27 05:42:29;;;;;;;6.22;3.05;;;;;;;21.48;89.37;100277.56;5171339;28;20061;-78
2021/07/27 05:44:59;;;;;;;4.97;3.45;;;;;;;21.49;89.08;100277.44;5169836;28;20013;-78
2021/07/27 05:47:29;;;;;;;4.90;3.17;;;;;;;21.35;89.20;100277.75;5164057;28;20073;-79
2021/07/27 05:50:00;;;;;;;7.10;3.30;;;;;;;21.20;90.48;100281.72;5162734;28;20756;-78
2021/07/27 05:52:30;;;;;;;5.10;3.30;;;;;;;21.70;87.62;100274.78;5164408;28;20265;-78
2021/07/27 05:55:00;;;;;;;7.23;3.50;;;;;;;21.84;86.52;100274.44;5169739;28;20289;-78
2021/07/27 05:57:30;;;;;;;8.45;3.70;;;;;;;22.31;86.03;100276.44;5169607;28;20321;-79
2021/07/27 06:00:01;;;;;;;5.32;3.20;;;;;;;23.48;84.48;100275.34;5162432;28;20297;-79
2021/07/27 06:02:31;;;;;;;6.40;2.80;;;;;;;23.41;81.60;100268.03;5166462;28;20538;-79
2021/07/27 06:05:02;;;;;;;8.68;3.30;;;;;;;22.44;85.48;100271.75;5163909;28;20381;-79
2021/07/27 06:07:32;;;;;;;6.82;3.20;;;;;;;22.38;85.60;100272.25;5161932;28;20109;-79
2021/07/27 06:10:02;;;;;;;5.68;3.53;;;;;;;21.96;88.70;100270.72;5173757;28;20114;-79
2021/07/27 06:12:33;;;;;;;6.10;3.13;;;;;;;22.17;87.99;100269.69;5163087;28;20064;-79
2021/07/27 06:15:05;;;;;;;5.70;3.30;;;;;;;22.77;86.26;100270.44;5163274;28;20030;-78
2021/07/27 06:17:35;;;;;;;9.65;3.38;;;;;;;23.25;80.06;100263.31;5161958;28;20079;-79
2021/07/27 06:20:06;;;;;;;5.50;3.10;;;;;;;23.53;81.85;100265.06;5163144;28;20034;-79
2021/07/27 06:22:37;;;;;;;4.78;3.00;;;;;;;24.17;78.12;100260.66;5162097;28;20160;-79
2021/07/27 06:25:10;;;;;;;6.45;2.92;;;;;;;24.52;74.99;100252.75;5169289;28;20033;-79
2021/07/27 06:27:41;;;;;;;4.65;2.60;;;;;;;25.39;74.32;100252.78;5167025;28;20027;-79
2021/07/27 06:30:12;;;;;;;5.50;2.87;;;;;;;24.61;74.60;100254.56;5161436;28;20037;-79
2021/07/27 06:32:43;;;;;;;5.05;2.83;;;;;;;25.97;72.09;100256.53;5161307;28;20309;-79
2021/07/27 06:35:13;;;;;;;5.30;3.00;;;;;;;25.60;72.26;100260.44;5158297;28;20116;-79
2021/07/27 06:37:44;;;;;;;3.95;2.83;;;;;;;26.84;68.73;100256.03;5162698;28;20280;-79
2021/07/27 06:40:14;;;;;;;3.90;2.70;;;;;;;26.08;70.14;100256.25;5173446;28;20040;-79
2021/07/27 06:42:44;;;;;;;8.23;3.03;;;;;;;25.29;72.70;100269.94;5163841;28;20324;-79
2021/07/27 06:45:15;;;;;;;6.27;2.80;;;;;;;26.18;70.80;100256.13;5162138;28;20022;-79
2021/07/27 06:47:45;;;;;;;3.55;2.35;;;;;;;27.02;69.15;100258.56;5161174;28;20062;-79
2021/07/27 06:50:16;;;;;;;4.73;2.70;;;;;;;27.87;68.01;100250.81;5162666;28;20037;-79
2021/07/27 06:52:46;;;;;;;4.68;2.60;;;;;;;28.06;66.63;100250.41;5162724;28;20065;-80
2021/07/27 06:55:19;;;;;;;3.80;2.63;;;;;;;27.61;67.36;100251.00;5169718;28;20076;-79
2021/07/27 06:57:50;;;;;;;5.03;2.60;;;;;;;28.57;64.75;100253.41;5162690;28;20022;-79
2021/07/27 07:00:20;;;;;;;5.50;2.90;;;;;;;28.01;65.31;100248.28;5162222;28;20033;-79
2021/07/27 07:02:50;;;;;;;7.75;3.05;;;;;;;27.47;67.69;100259.75;5162426;28;20030;-79
2021/07/27 07:05:20;;;;;;;4.07;2.70;;;;;;;28.67;62.89;100259.41;5162857;28;20029;-79
2021/07/27 07:07:51;;;;;;;5.60;3.17;;;;;;;28.33;63.23;100268.84;5163554;28;20443;-80
2021/07/27 07:10:22;;;;;;;6.38;2.70;;;;;;;28.29;62.70;100271.00;5173322;28;20407;-79
2021/07/27 07:12:52;;;;;;;6.50;2.80;;;;;;;26.79;66.52;100274.44;5161655;28;20060;-79
2021/07/27 07:15:23;;;;;;;5.60;3.20;;;;;;;27.09;66.64;100281.88;5162051;28;20030;-79
2021/07/27 07:17:53;;;;;;;6.15;3.10;;;;;;;26.17;69.31;100281.25;5163028;28;20034;-79
2021/07/27 07:20:24;;;;;;;4.82;2.78;;;;;;;27.75;65.17;100274.53;5163081;28;20030;-78
2021/07/27 07:22:54;;;;;;;4.38;2.90;;;;;;;29.00;62.79;100269.81;5162733;28;20029;-79
2021/07/27 07:25:24;;;;;;;3.60;2.20;;;;;;;28.77;63.00;100276.16;5170093;28;20030;-79
2021/07/27 07:27:55;;;;;;;3.60;2.60;;;;;;;29.59;61.64;100273.56;5166828;28;20185;-79
2021/07/27 07:30:26;;;;;;;4.68;2.60;;;;;;;30.88;59.36;100264.59;5169133;28;20282;-79
2021/07/27 07:32:56;;;;;;;3.88;2.58;;;;;;;30.15;60.34;100270.28;5162534;28;20030;-79
2021/07/27 07:35:27;;;;;;;4.80;2.63;;;;;;;30.43;59.13;100272.13;5160526;28;20026;-80
2021/07/27 07:37:57;;;;;;;5.60;2.65;;;;;;;29.67;59.12;100284.25;5166672;28;20175;-79
2021/07/27 07:40:28;;;;;;;6.38;2.50;;;;;;;28.33;62.66;100290.34;5176135;28;20058;-79
2021/07/27 07:42:59;;;;;;;5.15;2.70;;;;;;;27.23;65.79;100288.44;5164870;28;20073;-79
2021/07/27 07:45:30;;;;;;;4.22;2.70;;;;;;;27.37;66.74;100283.28;5171472;28;20069;-79
2021/07/27 07:48:00;;;;;;;7.03;3.53;;;;;;;26.81;67.00;100288.56;5165345;28;20058;-79
2021/07/27 07:50:31;;;;;;;5.50;2.90;;;;;;;25.61;69.75;100296.94;5165314;28;20350;-78
2021/07/27 07:53:03;;;;;;;5.03;3.00;;;;;;;26.26;69.80;100288.31;5164749;28;20277;-78
2021/07/27 07:55:33;;;;;;;5.65;2.97;;;;;;;26.02;69.30;100298.94;5173196;28;20076;-78
2021/07/27 07:58:04;;;;;;;5.18;3.00;;;;;;;26.81;69.32;100288.56;5167728;28;20552;-78
2021/07/27 08:00:34;;;;;;;4.00;3.00;;;;;;;26.29;69.84;100288.84;5164604;28;20035;-79
2021/07/27 08:03:04;;;;;;;4.22;2.80;;;;;;;26.26;70.51;100291.00;5169320;23;20691;-76
2021/07/27 08:05:34;;;;;;;4.97;3.20;;;;;;;25.10;72.96;100307.50;5147507;28;20038;-76
2021/07/27 08:08:05;;;;;;;6.33;3.17;;;;;;;24.85;72.58;100298.44;5144924;28;20361;-76
2021/07/27 08:10:35;;;;;;;5.25;3.10;;;;;;;25.11;72.45;100295.84;5150933;28;20286;-76
2021/07/27 08:13:05;;;;;;;4.57;2.83;;;;;;;24.94;71.76;100294.00;5142384;28;20131;-76
2021/07/27 08:15:36;;;;;;;7.43;3.17;;;;;;;24.56;73.61;100304.94;5141805;28;20266;-77
2021/07/27 08:18:07;;;;;;;6.63;3.33;;;;;;;24.21;74.78;100299.44;5142678;28;20274;-77
2021/07/27 08:20:37;;;;;;;6.37;3.27;;;;;;;23.93;76.63;100304.91;5142033;28;20476;-77
2021/07/27 08:23:07;;;;;;;6.90;3.90;;;;;;;24.13;75.81;100303.84;5142552;28;20281;-77
2021/07/27 08:25:38;;;;;;;5.82;3.65;;;;;;;25.25;73.81;100297.97;5150392;28;20281;-79
2021/07/27 08:28:08;;;;;;;5.63;3.55;;;;;;;27.62;66.37;100295.66;5146050;28;20030;-77
2021/07/27 08:30:38;;;;;;;6.80;3.80;;;;;;;27.83;65.48;100293.34;5142341;28;20029;-78
2021/07/27 08:33:08;;;;;;;6.90;3.27;;;;;;;27.80;65.63;100293.66;5142012;28;20093;-78
2021/07/27 08:35:39;;;;;;;5.73;3.40;;;;;;;27.14;68.10;100306.41;5140815;28;20027;-78
2021/07/27 08:38:09;;;;;;;6.97;3.37;;;;;;;28.82;63.44;100288.09;5144070;28;20352;-78
2021/07/27 08:40:40;;;;;;;5.83;3.23;;;;;;;30.26;60.47;100300.34;5149955;28;20281;-79
2021/07/27 08:43:10;;;;;;;4.40;2.85;;;;;;;29.70;60.28;100300.06;5141639;28;20278;-77
2021/07/27 08:45:40;;;;;;;4.30;3.00;;;;;;;28.48;63.11;100321.72;5140099;28;20034;-77
2021/07/27 08:48:13;;;;;;;4.53;3.30;;;;;;;27.49;64.41;100314.16;5141294;28;20285;-77
2021/07/27 08:50:44;;;;;;;4.45;2.92;;;;;;;26.62;67.13;100324.69;5137521;28;20026;-78
2021/07/27 08:53:14;;;;;;;4.47;3.50;;;;;;;25.14;71.72;100339.16;5141493;28;20033;-77
2021/07/27 08:55:45;;;;;;;6.07;3.53;;;;;;;25.80;69.44;100320.84;5149235;28;20018;-77
2021/07/27 08:58:17;;;;;;;5.18;3.60;;;;;;;25.42;69.15;100326.56;5142834;28;20278;-77
2021/07/27 09:00:47;;;;;;;7.47;3.90;;;;;;;25.76;69.51;100319.47;5141488;28;20029;-78
2021/07/27 09:03:18;;;;;;;6.07;4.20;;;;;;;25.54;70.11;100331.53;5141524;28;20546;-77
2021/07/27 09:06:03;;;;;;;6.40;3.97;;;;;;;25.34;68.98;100330.00;5141425;28;20027;-77
2021/07/27 09:08:33;;;;;;;5.43;4.07;;;;;;;25.20;70.64;100327.03;5145586;28;20035;-77
2021/07/27 09:11:04;;;;;;;5.45;4.18;;;;;;;25.18;70.40;100334.34;5148315;28;20086;-77
2021/07/27 09:13:34;;;;;;;5.20;3.88;;;;;;;25.19;70.45;100331.56;5141258;28;20436;-76
2021/07/27 09:16:04;;;;;;;5.28;3.85;;;;;;;26.81;67.43;100330.63;5141340;28;20493;-78
2021/07/27 09:18:37;;;;;;;6.20;3.87;;;;;;;27.55;64.33;100320.69;5141171;28;20033;-79
2021/07/27 09:21:07;;;;;;;7.95;3.78;;;;;;;29.62;62.45;100321.72;5140381;28;20284;-77
2021/07/27 09:23:43;;;;;;;5.60;3.70;;;;;;;28.02;63.54;100330.59;5141204;28;20618;-78
2021/07/27 09:26:13;;;;;;;5.45;3.35;;;;;;;27.19;65.88;100330.91;5149224;28;20307;-78
2021/07/27 09:28:44;;;;;;;6.10;3.90;;;;;;;25.83;69.11;100333.94;5142954;28;20050;-76
2021/07/27 09:31:14;;;;;;;4.40;3.33;;;;;;;25.85;69.56;100334.66;5140237;28;20067;-78
2021/07/27 09:33:44;;;;;;;5.38;3.50;;;;;;;26.19;71.06;100330.16;5141236;28;20357;-77
2021/07/27 09:36:22;;;;;;;6.75;3.60;;;;;;;26.54;69.24;100330.03;5145229;28;20019;-78
2021/07/27 09:39:00;;;;;;;5.47;3.40;;;;;;;25.97;69.83;100326.19;5146258;28;20019;-77
2021/07/27 09:41:31;;;;;;;5.50;3.40;;;;;;;26.24;68.29;100338.56;5146413;28;20035;-77
2021/07/27 09:44:05;;;;;;;5.35;3.50;;;;;;;26.37;67.82;100330.94;5146163;28;20045;-78
2021/07/27 09:46:35;;;;;;;6.28;3.65;;;;;;;26.65;67.52;100332.44;5146858;28;20030;-76
2021/07/27 09:49:05;;;;;;;4.60;3.40;;;;;;;26.65;67.54;100329.75;5150462;28;20027;-79
2021/07/27 09:51:38;;;;;;;7.45;3.67;;;;;;;25.77;67.83;100326.50;5146584;28;20026;-77
2021/07/27 09:54:11;;;;;;;5.97;3.10;;;;;;;25.16;69.63;100341.69;5148063;28;20711;-78
2021/07/27 09:56:44;;;;;;;6.65;3.70;;;;;;;25.27;69.00;100336.13;5155283;28;20030;-77
2021/07/27 09:59:16;;;;;;;8.10;3.20;;;;;;;25.27;69.68;100344.16;5135270;28;20112;-77
2021/07/27 10:01:56;;;;;;;4.90;3.60;;;;;;;25.28;69.73;100351.22;5148179;28;20029;-79
2021/07/27 10:04:36;;;;;;;9.75;4.20;;;;;;;25.27;71.22;100349.50;5139902;28;20066;-77
2021/07/27 10:07:07;;;;;;;8.63;4.10;;;;;;;26.30;69.99;100352.16;5145719;28;20023;-78
2021/07/27 10:09:37;;;;;;;5.75;3.95;;;;;;;27.01;67.12;100354.34;5147735;28;20025;-77
2021/07/27 10:12:15;;;;;;;5.20;3.70;;;;;;;27.56;65.54;100344.69;5145737;28;20022;-77
2021/07/27 10:14:46;;;;;;;6.55;3.35;;;;;;;27.80;67.05;100347.38;5144569;28;20368;-78
2021/07/27 10:17:18;;;;;;;6.38;3.60;;;;;;;27.71;65.93;100351.09;5147929;28;20028;-78
2021/07/27 10:19:51;;;;;;;5.10;3.70;;;;;;;27.24;67.17;100352.72;5145047;28;20034;-78
2021/07/27 10:22:30;;;;;;;4.45;3.10;;;;;;;27.36;67.32;100354.09;5143067;28;20042;-78
2021/07/27 10:25:11;;;;;;;4.20;3.10;;;;;;;26.97;67.03;100352.13;5143906;28;20072;-79
2021/07/27 10:27:49;;;;;;;4.97;3.08;;;;;;;27.48;65.00;100342.00;5144620;28;20027;-79
2021/07/27 10:30:34;;;;;;;5.78;3.30;;;;;;;27.75;64.22;100354.31;5146846;28;20031;-77
2021/07/27 10:33:04;;;;;;;6.43;3.00;;;;;;;27.57;63.78;100346.38;5143436;28;20638;-77
2021/07/27 10:35:35;;;;;;;4.93;2.97;;;;;;;27.53;64.58;100336.13;5145672;28;20019;-78
2021/07/27 10:38:13;;;;;;;4.10;2.80;;;;;;;27.14;67.90;100337.78;5144083;28;20464;-77
2021/07/27 10:40:44;;;;;;;5.53;3.38;;;;;;;26.51;67.14;100352.63;5145066;28;20492;-77
2021/07/27 10:43:24;;;;;;;6.35;3.25;;;;;;;26.64;69.07;100344.13;5150801;28;20097;-77
2021/07/27 10:45:59;;;;;;;5.10;2.90;;;;;;;26.55;65.37;100345.13;5136110;28;20480;-76
2021/07/27 10:48:37;;;;;;;5.45;2.90;;;;;;;25.93;66.54;100338.22;5139749;28;20403;-78
2021/07/27 10:51:09;;;;;;;3.78;3.00;;;;;;;25.94;67.29;100341.72;5146272;28;20074;-77
2021/07/27 10:53:42;;;;;;;5.07;2.80;;;;;;;26.08;66.70;100338.47;5139969;28;20746;-79
2021/07/27 10:56:13;;;;;;;4.18;2.47;;;;;;;26.28;66.36;100339.91;5139046;28;20114;-77
2021/07/27 10:58:45;;;;;;;3.88;2.50;;;;;;;26.42;66.06;100334.81;5137808;28;20110;-79
2021/07/27 11:01:17;;;;;;;5.70;2.95;;;;;;;26.75;64.21;100340.16;5138836;28;20041;-80
2021/07/27 11:03:48;;;;;;;4.60;2.35;;;;;;;26.81;65.50;100333.31;5147607;28;20034;-79
2021/07/27 11:06:20;;;;;;;5.32;2.92;;;;;;;27.18;64.08;100339.13;5141618;28;20027;-77
2021/07/27 11:08:59;;;;;;;8.18;3.58;;;;;;;26.90;65.98;100343.06;5148441;28;20018;-79
2021/07/27 11:11:29;;;;;;;5.90;3.10;;;;;;;27.00;63.45;100333.03;5142344;28;20672;-77
2021/07/27 11:14:00;;;;;;;4.57;2.80;;;;;;;26.90;64.01;100332.34;5144833;28;20077;-79
2021/07/27 11:16:40;;;;;;;3.97;2.87;;;;;;;27.29;64.21;100323.53;5147232;28;20285;-79
2021/07/27 11:19:22;;;;;;;6.65;2.60;;;;;;;27.21;65.91;100328.03;5146584;28;20688;-79
2021/07/27 11:21:55;;;;;;;3.53;2.58;;;;;;;27.12;62.20;100319.16;5143986;28;20046;-78
2021/07/27 11:24:28;;;;;;;4.90;2.53;;;;;;;26.83;63.18;100324.09;5142057;28;20030;-78
2021/07/27 11:26:58;;;;;;;4.55;2.80;;;;;;;27.24;62.81;100322.38;5144278;28;20038;-77
2021/07/27 11:29:28;;;;;;;3.95;2.90;;;;;;;27.16;63.41;100323.19;5144757;28;20034;-78
2021/07/27 11:31:59;;;;;;;5.47;3.20;;;;;;;26.88;63.50;100316.41;5144796;28;20121;-78
2021/07/27 11:34:31;;;;;;;4.47;3.00;;;;;;;27.02;66.37;100320.28;5143993;28;20086;-77
2021/07/27 11:37:01;;;;;;;6.95;2.97;;;;;;;26.46;64.00;100321.91;5147292;28;20230;-78
2021/07/27 11:39:40;;;;;;;5.90;3.10;;;;;;;26.68;68.29;100319.50;5147886;28;20143;-78
2021/07/27 11:42:11;;;;;;;8.50;3.28;;;;;;;26.73;64.30;100308.31;5146694;28;20285;-78
2021/07/27 11:44:43;;;;;;;5.45;3.13;;;;;;;26.55;64.64;100307.56;5142743;28;20026;-78
2021/07/27 11:47:13;;;;;;;4.18;3.15;;;;;;;26.74;65.83;100314.34;5145183;28;20038;-81
2021/07/27 11:49:53;;;;;;;6.38;3.13;;;;;;;26.82;64.57;100313.53;5150089;28;20023;-81
2021/07/27 11:52:28;;;;;;;5.22;2.95;;;;;;;27.01;65.82;100308.72;5144815;28;20408;-78
2021/07/27 11:55:00;;;;;;;6.67;3.00;;;;;;;26.79;65.55;100295.09;5145478;28;20043;-77
2021/07/27 11:57:30;;;;;;;5.60;3.05;;;;;;;26.79;66.69;100300.44;5142386;28;20039;-77